Time;durP1;ratioP1;P1;durP2;ratioP2;P2;SDS_P1;SDS_P2;PMS_P1;PMS_P2;Temp;Humidity;BMP_temperature;BMP_pressure;BME280_temperature;BME280_humidity;BME280_pressure;Samples;Min_cycle;Max_cycle;Signal;HPM_P1;HPM_P2
2022/01/05 00:00:22;;;;;;;;;4.00;0.00;;;;;4.56;68.87;99943.91;5025900;28;11113;-71
2022/01/05 00:02:48;;;;;;;;;0.00;0.00;;;;;4.56;69.09;99947.41;5024255;28;11048;-73
2022/01/05 00:05:15;;;;;;;;;0.00;0.00;;;;;4.45;68.55;99944.25;5005957;28;10981;-71
2022/01/05 00:07:42;;;;;;;;;0.00;0.00;;;;;4.46;68.72;99940.56;5023425;28;11022;-69
2022/01/05 00:10:08;;;;;;;;;0.00;0.00;;;;;4.40;68.21;99942.09;5025762;28;11051;-72
2022/01/05 00:12:35;;;;;;;;;0.00;0.00;;;;;4.48;68.17;99939.41;5024320;28;11096;-68
2022/01/05 00:15:01;;;;;;;;;1.25;0.00;;;;;4.43;68.19;99938.22;5008071;28;11931;-71
2022/01/05 00:17:28;;;;;;;;;0.00;0.00;;;;;4.45;68.30;99933.53;5023884;28;10935;-70
2022/01/05 00:19:54;;;;;;;;;1.00;1.00;;;;;4.43;68.60;99927.50;5024347;28;10985;-71
2022/01/05 00:22:21;;;;;;;;;1.50;0.00;;;;;4.40;67.69;99925.16;5024121;28;11153;-70
2022/01/05 00:24:48;;;;;;;;;0.00;0.00;;;;;4.44;67.00;99926.50;5005409;28;11041;-71
2022/01/05 00:27:14;;;;;;;;;0.00;0.00;;;;;4.47;67.07;99929.69;5005732;28;11014;-71
2022/01/05 00:29:41;;;;;;;;;0.50;0.50;;;;;4.45;67.18;99926.31;5022800;28;11053;-71
2022/01/05 00:32:08;;;;;;;;;0.00;0.00;;;;;4.42;67.56;99933.88;5024408;28;11037;-72
2022/01/05 00:34:35;;;;;;;;;0.00;0.00;;;;;4.45;67.13;99923.63;5023509;28;10850;-72
2022/01/05 00:37:03;;;;;;;;;0.50;0.00;;;;;4.44;67.65;99931.84;5024702;28;10929;-72
2022/01/05 00:39:29;;;;;;;;;0.00;0.00;;;;;4.52;68.39;99935.38;5022510;28;11130;-71
2022/01/05 00:41:56;;;;;;;;;0.25;0.00;;;;;4.55;68.61;99935.03;5006718;28;11053;-72
2022/01/05 00:44:24;;;;;;;;;1.25;0.25;;;;;4.42;68.14;99933.88;5024693;28;11383;-72
2022/01/05 00:46:50;;;;;;;;;0.75;0.00;;;;;4.41;68.96;99935.72;5005014;28;11002;-72
2022/01/05 00:49:17;;;;;;;;;2.00;2.00;;;;;4.37;68.83;99934.41;5026795;28;10844;-72
2022/01/05 00:51:44;;;;;;;;;0.00;0.00;;;;;4.38;68.54;99937.91;5027495;28;11010;-71
2022/01/05 00:54:10;;;;;;;;;0.25;0.25;;;;;4.39;68.00;99936.91;5027803;28;10883;-71
2022/01/05 00:56:36;;;;;;;;;0.25;0.25;;;;;4.44;68.26;99934.53;5027090;28;12011;-70
2022/01/05 00:59:03;;;;;;;;;0.00;0.00;;;;;4.42;67.75;99940.06;5009199;28;11110;-71
2022/01/05 01:01:30;;;;;;;;;2.00;0.75;;;;;4.29;67.86;99940.63;5025959;28;10847;-71
2022/01/05 01:03:56;;;;;;;;;0.00;0.00;;;;;4.28;68.09;99941.63;5002634;28;10846;-72
2022/01/05 01:06:23;;;;;;;;;7.00;0.25;;;;;4.29;68.37;99943.28;5028502;28;11168;-70
2022/01/05 01:08:49;;;;;;;;;0.00;0.00;;;;;4.36;67.99;99937.25;5028229;28;11135;-71
2022/01/05 01:11:16;;;;;;;;;0.00;0.00;;;;;4.22;67.11;99939.63;5026131;28;11773;-71
2022/01/05 01:13:43;;;;;;;;;0.00;0.00;;;;;4.30;67.96;99938.78;5029276;28;11092;-71
2022/01/05 01:16:10;;;;;;;;;2.00;2.00;;;;;4.23;67.07;99941.31;5025710;28;11785;-70
2022/01/05 01:18:37;;;;;;;;;0.75;0.75;;;;;4.26;67.51;99940.97;5026692;28;11208;-70
2022/01/05 01:21:03;;;;;;;;;1.00;0.00;;;;;4.22;67.05;99941.47;5027154;28;11148;-71
2022/01/05 01:23:30;;;;;;;;;0.00;0.00;;;;;4.22;67.21;99938.81;5028772;28;11211;-70
2022/01/05 01:25:56;;;;;;;;;0.00;0.00;;;;;4.29;67.63;99940.63;5028042;28;10964;-70
2022/01/05 01:28:24;;;;;;;;;0.00;0.00;;;;;4.20;67.60;99936.25;5027163;28;11132;-70
2022/01/05 01:30:51;;;;;;;;;1.00;0.75;;;;;4.24;67.93;99944.81;5027975;28;10968;-71
2022/01/05 01:33:18;;;;;;;;;2.00;0.25;;;;;4.29;68.17;99945.97;5008029;28;11122;-69
2022/01/05 01:35:44;;;;;;;;;0.50;0.50;;;;;4.30;68.93;99936.94;4988087;28;11202;-69
2022/01/05 01:38:11;;;;;;;;;0.00;0.00;;;;;4.27;69.22;99937.28;5020757;28;11185;-70
2022/01/05 01:40:37;;;;;;;;;1.00;1.00;;;;;4.32;69.92;99944.78;5019450;28;11144;-70
2022/01/05 01:43:04;;;;;;;;;0.00;0.00;;;;;4.32;69.91;99944.78;5018877;28;11039;-68
2022/01/05 01:45:31;;;;;;;;;1.00;1.00;;;;;4.39;70.11;99944.94;5020524;28;11105;-69
2022/01/05 01:47:57;;;;;;;;;4.00;1.50;;;;;4.40;70.74;99943.94;5017430;28;11244;-70
2022/01/05 01:50:25;;;;;;;;;1.00;1.00;;;;;4.38;70.75;99928.03;5018012;28;11249;-69
2022/01/05 01:52:51;;;;;;;;;6.75;2.00;;;;;4.35;70.96;99939.09;5017935;28;11336;-70
2022/01/05 01:55:19;;;;;;;;;4.50;1.00;;;;;4.33;71.88;99941.09;5002654;28;11566;-69
2022/01/05 01:57:46;;;;;;;;;2.00;1.00;;;;;4.37;72.01;99942.44;5019544;28;11454;-70
2022/01/05 02:00:14;;;;;;;;;0.25;0.00;;;;;4.35;72.08;99944.44;5016620;28;11863;-69
2022/01/05 02:02:44;;;;;;;;;5.75;2.00;;;;;4.33;72.60;99939.25;5021050;28;11071;-70
2022/01/05 02:05:12;;;;;;;;;5.00;3.00;;;;;4.32;72.81;99945.63;5002195;28;10996;-70
2022/01/05 02:07:38;;;;;;;;;0.75;0.75;;;;;4.33;72.76;99943.78;5018369;28;11239;-70
2022/01/05 02:10:10;;;;;;;;;3.00;3.00;;;;;4.35;73.34;99946.28;5017743;28;11187;-69
2022/01/05 02:12:36;;;;;;;;;3.00;1.00;;;;;4.41;73.84;99942.91;5018657;28;11250;-70
2022/01/05 02:15:04;;;;;;;;;5.00;2.00;;;;;4.42;73.56;99942.75;5017741;28;12045;-69
2022/01/05 02:17:44;;;;;;;;;0.75;0.75;;;;;4.43;74.16;99944.41;5017698;28;11628;-68
2022/01/05 02:20:16;;;;;;;;;0.75;0.75;;;;;4.48;74.25;99942.09;5019505;28;11599;-70
2022/01/05 02:22:44;;;;;;;;;0.00;0.00;;;;;4.46;74.29;99941.44;5001288;28;11135;-69
2022/01/05 02:25:11;;;;;;;;;1.75;0.75;;;;;4.48;74.71;99942.09;5017523;28;11122;-71
2022/01/05 02:27:39;;;;;;;;;0.25;0.25;;;;;4.45;74.71;99952.28;4999838;28;11103;-69
2022/01/05 02:30:08;;;;;;;;;2.00;1.00;;;;;4.46;75.12;99949.47;5023223;28;11128;-68
2022/01/05 02:32:34;;;;;;;;;1.00;1.00;;;;;4.44;74.93;99951.44;5000684;28;11194;-69
2022/01/05 02:35:01;;;;;;;;;2.00;2.00;;;;;4.42;74.59;99949.94;5004307;28;11568;-70
2022/01/05 02:37:28;;;;;;;;;1.75;1.00;;;;;4.36;73.06;99948.78;5016757;28;11899;-70
2022/01/05 02:39:55;;;;;;;;;0.75;0.75;;;;;4.43;72.39;99954.31;5019940;28;11080;-70
2022/01/05 02:42:29;;;;;;;;;5.00;1.00;;;;;4.47;72.32;99952.97;5021641;28;11076;-70
2022/01/05 02:44:56;;;;;;;;;0.00;0.00;;;;;4.45;73.50;99946.94;5020543;28;11090;-70
2022/01/05 02:47:22;;;;;;;;;3.00;2.00;;;;;4.42;73.60;99947.28;5017873;28;11441;-70
2022/01/05 02:49:49;;;;;;;;;0.00;0.00;;;;;4.42;74.28;99948.09;5000720;28;11202;-69
2022/01/05 02:52:15;;;;;;;;;1.25;0.50;;;;;4.40;74.42;99947.44;5015965;28;11187;-69
2022/01/05 02:54:42;;;;;;;;;0.00;0.00;;;;;4.41;74.28;99938.41;5019349;28;11292;-70
2022/01/05 02:57:09;;;;;;;;;2.00;2.00;;;;;4.40;74.44;99942.09;4999875;28;10991;-70
2022/01/05 02:59:35;;;;;;;;;5.25;3.50;;;;;4.40;74.03;99938.56;5020207;28;11143;-70
2022/01/05 03:02:03;;;;;;;;;0.00;0.00;;;;;4.39;73.33;99948.44;5016083;28;11478;-70
2022/01/05 03:04:30;;;;;;;;;1.75;1.00;;;;;4.42;74.00;99944.59;5017848;28;11131;-70
2022/01/05 03:06:57;;;;;;;;;2.00;1.25;;;;;4.39;73.59;99948.44;5000258;28;11095;-69
2022/01/05 03:09:23;;;;;;;;;1.00;0.50;;;;;4.44;73.32;99947.94;5020660;28;11074;-71
2022/01/05 03:11:50;;;;;;;;;2.00;0.00;;;;;4.43;73.42;99954.31;5017214;28;12088;-69
2022/01/05 03:14:16;;;;;;;;;0.75;0.75;;;;;4.49;73.64;99956.31;5018333;28;11298;-71
2022/01/05 03:16:43;;;;;;;;;3.00;3.00;;;;;4.48;73.91;99952.81;5015588;28;11156;-69
2022/01/05 03:19:09;;;;;;;;;4.50;4.50;;;;;4.55;73.93;99952.94;5017251;28;11539;-71
2022/01/05 03:21:35;;;;;;;;;3.50;1.00;;;;;4.61;74.26;99960.28;5021049;28;11055;-70
2022/01/05 03:24:02;;;;;;;;;0.75;0.75;;;;;4.66;74.72;99962.44;5018294;28;11922;-71
2022/01/05 03:26:29;;;;;;;;;5.00;2.75;;;;;4.66;75.91;99962.44;4999282;28;11264;-70
2022/01/05 03:28:56;;;;;;;;;2.00;1.00;;;;;4.64;76.72;99965.31;5018649;28;11131;-70
2022/01/05 03:31:22;;;;;;;;;1.00;1.00;;;;;4.61;77.64;99966.50;5014048;28;11135;-71
2022/01/05 03:33:49;;;;;;;;;1.00;1.00;;;;;4.54;78.44;99972.72;4999456;28;10901;-69
2022/01/05 03:36:16;;;;;;;;;2.75;2.00;;;;;4.54;80.16;99972.72;5018568;28;11649;-71
2022/01/05 03:38:42;;;;;;;;;1.00;0.25;;;;;4.41;82.31;99983.13;5014018;28;11174;-70
2022/01/05 03:41:09;;;;;;;;;1.00;0.75;;;;;4.31;83.06;99977.94;5016568;28;11056;-68
2022/01/05 03:43:35;;;;;;;;;1.00;0.00;;;;;4.24;84.28;99969.75;5017579;28;12324;-70
2022/01/05 03:46:02;;;;;;;;;1.00;1.00;;;;;4.19;84.66;99974.78;5015546;28;11197;-70
2022/01/05 03:48:28;;;;;;;;;0.50;0.50;;;;;4.18;84.27;99965.06;4998390;28;11064;-69
2022/01/05 03:50:55;;;;;;;;;0.50;0.50;;;;;4.23;84.95;99961.91;5015871;28;11258;-70
2022/01/05 03:53:22;;;;;;;;;2.75;1.75;;;;;4.26;83.59;99956.19;5016955;28;11866;-70
2022/01/05 03:55:48;;;;;;;;;1.25;1.25;;;;;4.33;83.42;99966.06;5000387;28;11047;-70
2022/01/05 03:58:15;;;;;;;;;2.25;1.25;;;;;4.37;83.61;99969.22;5018728;28;11074;-70
2022/01/05 04:00:46;;;;;;;;;4.75;1.75;;;;;4.40;82.44;99973.41;4999224;28;11833;-71
2022/01/05 04:03:13;;;;;;;;;1.00;1.00;;;;;4.44;82.18;99974.72;5017863;28;11021;-70
2022/01/05 04:05:39;;;;;;;;;0.25;0.25;;;;;4.46;82.67;99967.34;5016259;28;11039;-70
2022/01/05 04:08:06;;;;;;;;;0.50;0.50;;;;;4.40;82.09;99960.84;5015021;28;10997;-70
2022/01/05 04:10:32;;;;;;;;;2.00;1.25;;;;;4.43;82.20;99963.19;4999537;28;11034;-69
2022/01/05 04:12:59;;;;;;;;;1.00;1.00;;;;;4.45;81.42;99968.38;5017370;28;11109;-70
2022/01/05 04:15:26;;;;;;;;;1.25;1.25;;;;;4.42;82.09;99972.22;5016364;28;11070;-71
2022/01/05 04:17:52;;;;;;;;;1.00;1.00;;;;;4.49;82.23;99969.72;4998396;28;10952;-70
2022/01/05 04:20:20;;;;;;;;;1.75;1.75;;;;;4.47;81.96;99959.19;4998732;28;11065;-69
2022/01/05 04:22:47;;;;;;;;;1.00;1.00;;;;;4.48;82.23;99965.38;5014342;28;11466;-71
2022/01/05 04:25:14;;;;;;;;;1.00;1.00;;;;;4.48;82.75;99968.88;5020250;28;11008;-70
2022/01/05 04:27:41;;;;;;;;;4.00;1.00;;;;;4.46;82.67;99967.34;5024642;28;11076;-69
2022/01/05 04:30:11;;;;;;;;;4.25;1.00;;;;;4.46;82.35;99981.63;5021784;28;11164;-71
2022/01/05 04:32:38;;;;;;;;;1.50;1.00;;;;;4.52;82.69;99988.13;5017743;28;11126;-70
2022/01/05 04:35:24;;;;;;;;;3.00;1.00;;;;;4.48;82.13;99981.44;5019835;28;11084;-71
2022/01/05 04:37:53;;;;;;;;;1.00;1.00;;;;;4.52;82.37;99986.28;4998594;28;11082;-70
2022/01/05 04:40:19;;;;;;;;;2.75;1.00;;;;;4.54;82.75;99996.84;4999467;28;10769;-70
2022/01/05 04:42:46;;;;;;;;;1.50;1.50;;;;;4.54;84.26;100002.19;5018832;28;11019;-71
2022/01/05 04:45:13;;;;;;;;;1.50;1.50;;;;;4.49;85.71;99999.19;5016904;28;11028;-69
2022/01/05 04:47:39;;;;;;;;;4.25;1.00;;;;;4.46;86.45;100011.09;5016917;28;11009;-70
2022/01/05 04:50:07;;;;;;;;;2.00;2.00;;;;;4.41;87.56;99997.34;5019450;28;11074;-70
2022/01/05 04:52:33;;;;;;;;;6.00;2.00;;;;;4.38;88.08;99994.19;5019501;28;11033;-70
2022/01/05 04:55:00;;;;;;;;;1.50;1.50;;;;;4.34;88.67;99993.69;5019469;28;11592;-71
2022/01/05 04:57:27;;;;;;;;;1.00;1.00;;;;;4.32;89.00;99996.53;5019317;28;11094;-70
2022/01/05 04:59:53;;;;;;;;;2.00;2.00;;;;;4.35;89.19;99998.03;5002201;28;10985;-70
2022/01/05 05:02:20;;;;;;;;;1.75;1.25;;;;;4.30;88.58;99995.88;5017036;28;11170;-70
2022/01/05 05:04:50;;;;;;;;;2.00;1.00;;;;;4.33;88.11;100000.06;5021391;28;11129;-71
2022/01/05 05:07:16;;;;;;;;;6.00;2.00;;;;;4.32;87.94;99995.69;5017486;28;11148;-70
2022/01/05 05:09:43;;;;;;;;;4.50;4.00;;;;;4.35;87.75;99992.69;5026322;28;11074;-71
2022/01/05 05:12:10;;;;;;;;;4.25;2.00;;;;;4.34;87.45;99993.69;5018832;28;11245;-71
2022/01/05 05:14:36;;;;;;;;;4.00;4.00;;;;;4.29;86.88;99994.19;5001548;28;11311;-70
2022/01/05 05:17:04;;;;;;;;;2.00;1.25;;;;;4.37;87.54;99997.88;5020100;28;11491;-70
2022/01/05 05:19:31;;;;;;;;;2.00;2.00;;;;;4.40;86.85;100000.19;5021954;28;12185;-70
2022/01/05 05:21:58;;;;;;;;;1.75;1.00;;;;;4.41;86.83;100000.03;5017609;28;11360;-70
2022/01/05 05:24:24;;;;;;;;;4.00;1.00;;;;;4.40;86.58;100001.03;5021053;28;11226;-70
2022/01/05 05:26:51;;;;;;;;;1.00;1.00;;;;;4.42;86.62;100001.69;5019057;28;11513;-71
2022/01/05 05:29:17;;;;;;;;;1.00;0.25;;;;;4.46;86.58;100010.22;5019707;28;11199;-71
2022/01/05 05:31:44;;;;;;;;;1.00;1.00;;;;;4.50;85.96;100009.75;5015980;28;11293;-72
2022/01/05 05:34:10;;;;;;;;;4.00;2.00;;;;;4.49;86.00;100010.75;5020674;28;11051;-72
2022/01/05 05:36:37;;;;;;;;;2.00;2.00;;;;;4.53;86.19;100004.03;5015984;28;11496;-71
2022/01/05 05:39:03;;;;;;;;;4.00;1.50;;;;;4.54;86.51;100003.03;5018438;28;11154;-72
2022/01/05 05:41:29;;;;;;;;;2.50;2.00;;;;;4.57;86.37;100000.00;5019382;28;11273;-71
2022/01/05 05:43:56;;;;;;;;;1.75;1.25;;;;;4.59;86.29;99999.84;5018679;28;11056;-71
2022/01/05 05:46:23;;;;;;;;;4.00;2.00;;;;;4.64;86.60;99995.63;5020040;28;11178;-70
2022/01/05 05:48:49;;;;;;;;;0.25;0.25;;;;;4.62;87.18;99994.97;5018651;28;11197;-70
2022/01/05 05:51:16;;;;;;;;;0.75;0.75;;;;;4.61;87.58;99993.28;5018713;28;11086;-72
2022/01/05 05:53:42;;;;;;;;;3.50;2.50;;;;;4.62;88.25;99994.97;5020787;28;11898;-71
2022/01/05 05:56:09;;;;;;;;;5.50;3.00;;;;;4.62;88.64;100002.16;5015372;28;11326;-71
2022/01/05 05:58:35;;;;;;;;;4.00;2.50;;;;;4.60;89.80;100002.34;5018996;28;11018;-70
2022/01/05 06:01:02;;;;;;;;;0.75;0.75;;;;;4.58;90.51;100001.69;5019217;28;11600;-71
2022/01/05 06:03:28;;;;;;;;;5.50;3.00;;;;;4.53;91.33;100006.72;5018680;28;11022;-71
2022/01/05 06:05:55;;;;;;;;;1.75;0.50;;;;;4.49;92.29;99994.69;5017974;28;11161;-71
2022/01/05 06:08:23;;;;;;;;;2.75;1.00;;;;;4.50;93.55;100003.56;5001647;28;10974;-71
2022/01/05 06:10:50;;;;;;;;;0.00;0.00;;;;;4.49;94.18;99997.34;5021005;28;10988;-71
2022/01/05 06:13:16;;;;;;;;;1.75;1.75;;;;;4.50;94.41;100007.06;5019386;28;10948;-71
2022/01/05 06:15:43;;;;;;;;;0.00;0.00;;;;;4.49;94.27;99993.84;5017564;28;10933;-72
2022/01/05 06:18:09;;;;;;;;;4.00;3.00;;;;;4.47;94.27;99995.84;5017392;28;11040;-70
2022/01/05 06:20:35;;;;;;;;;4.75;1.75;;;;;4.54;94.67;99992.31;5017966;28;10989;-70
2022/01/05 06:23:02;;;;;;;;;2.00;2.00;;;;;4.48;94.26;99986.81;5019118;28;10861;-70
2022/01/05 06:25:29;;;;;;;;;3.25;2.50;;;;;4.47;94.26;99993.19;4999506;28;11556;-70
2022/01/05 06:27:55;;;;;;;;;0.75;0.75;;;;;4.48;94.10;99997.53;5018651;28;11575;-71
2022/01/05 06:30:22;;;;;;;;;0.50;0.50;;;;;4.53;94.43;100011.25;5019238;28;11087;-71
2022/01/05 06:32:48;;;;;;;;;4.00;3.50;;;;;4.52;93.74;100006.91;5021038;28;11056;-71
2022/01/05 06:35:16;;;;;;;;;1.50;1.00;;;;;4.53;93.38;100012.09;5020041;28;11113;-71
2022/01/05 06:37:42;;;;;;;;;3.00;1.00;;;;;4.56;93.39;100016.25;5018925;28;11180;-71
2022/01/05 06:40:11;;;;;;;;;4.00;4.00;;;;;4.63;93.71;100003.84;5017401;28;11178;-71
2022/01/05 06:42:37;;;;;;;;;1.00;0.50;;;;;4.62;93.19;100003.00;5017957;28;11136;-70
2022/01/05 06:45:05;;;;;;;;;2.25;2.25;;;;;4.62;92.78;100000.31;5017715;28;11066;-71
2022/01/05 06:47:31;;;;;;;;;1.50;1.50;;;;;4.62;92.65;100011.06;5018010;28;11169;-71
2022/01/05 06:49:57;;;;;;;;;0.25;0.25;;;;;4.69;92.80;100005.84;5018044;28;11067;-72
2022/01/05 06:52:26;;;;;;;;;4.00;4.00;;;;;4.72;92.44;100002.84;5000946;28;11198;-70
2022/01/05 06:54:53;;;;;;;;;3.75;3.75;;;;;4.73;92.81;100009.03;5019633;28;11495;-70
2022/01/05 06:57:19;;;;;;;;;3.50;3.50;;;;;4.71;92.35;100013.69;5018302;28;11105;-70
2022/01/05 06:59:46;;;;;;;;;3.25;1.50;;;;;4.78;92.43;100015.53;5002199;28;11187;-70
2022/01/05 07:02:12;;;;;;;;;1.50;1.00;;;;;4.78;92.76;100009.34;5021298;28;11141;-70
2022/01/05 07:04:39;;;;;;;;;2.00;1.50;;;;;4.77;93.01;100021.91;5024811;28;11030;-69
2022/01/05 07:07:05;;;;;;;;;4.25;2.00;;;;;4.75;93.45;100015.06;5024184;28;11083;-69
2022/01/05 07:09:32;;;;;;;;;2.00;2.00;;;;;4.74;93.56;100027.63;5023589;28;11120;-70
2022/01/05 07:11:59;;;;;;;;;5.00;2.00;;;;;4.75;93.93;100029.31;5026652;28;11082;-71
2022/01/05 07:14:26;;;;;;;;;3.25;1.00;;;;;4.75;94.34;100037.34;5024289;28;11214;-71
2022/01/05 07:16:53;;;;;;;;;6.25;5.00;;;;;4.74;94.29;100038.34;5024625;28;10912;-71
2022/01/05 07:19:20;;;;;;;;;3.50;3.00;;;;;4.73;95.52;100041.22;5026057;28;11013;-70
2022/01/05 07:21:47;;;;;;;;;4.50;1.50;;;;;4.72;95.67;100044.91;5025357;28;11238;-71
2022/01/05 07:24:17;;;;;;;;;3.75;2.00;;;;;4.70;95.74;100054.94;5024479;28;11161;-71
2022/01/05 07:26:44;;;;;;;;;3.25;0.50;;;;;4.68;96.43;100062.31;5021592;28;10966;-71
2022/01/05 07:29:16;;;;;;;;;5.00;2.50;;;;;4.73;96.45;100060.81;5025198;28;10983;-71
2022/01/05 07:31:43;;;;;;;;;7.00;6.50;;;;;4.73;96.59;100063.50;5021189;28;11171;-72
2022/01/05 07:34:10;;;;;;;;;4.50;2.00;;;;;4.76;96.80;100070.34;5024510;28;10991;-71
2022/01/05 07:36:37;;;;;;;;;2.50;1.00;;;;;4.73;96.92;100079.56;5006871;28;11053;-71
2022/01/05 07:39:05;;;;;;;;;3.50;1.25;;;;;4.78;97.42;100074.53;5023836;28;11186;-70
2022/01/05 07:41:33;;;;;;;;;1.75;1.75;;;;;4.81;97.05;100068.81;5025348;28;10934;-70
2022/01/05 07:44:00;;;;;;;;;3.00;1.00;;;;;4.81;96.85;100079.56;5016117;28;11088;-71
2022/01/05 07:46:27;;;;;;;;;1.00;1.00;;;;;4.79;96.86;100072.69;5021154;28;10807;-71
2022/01/05 07:48:53;;;;;;;;;1.00;1.00;;;;;4.81;96.47;100078.72;5022433;28;10855;-73
2022/01/05 07:51:20;;;;;;;;;1.25;1.00;;;;;4.82;96.07;100081.22;5021995;28;11074;-70
2022/01/05 07:53:46;;;;;;;;;1.00;1.00;;;;;4.83;95.76;100079.38;5022550;28;11074;-71
2022/01/05 07:56:13;;;;;;;;;0.00;0.00;;;;;4.85;95.18;100088.94;5018618;28;10980;-72
2022/01/05 07:58:40;;;;;;;;;3.00;1.00;;;;;4.86;95.32;100087.09;5017194;28;10970;-74
2022/01/05 08:01:07;;;;;;;;;8.75;2.50;;;;;4.85;94.70;100078.19;5022253;28;11083;-72
2022/01/05 08:03:33;;;;;;;;;1.00;1.00;;;;;4.91;94.92;100087.41;5021072;28;11106;-72
2022/01/05 08:06:18;;;;;;;;;1.25;0.25;;;;;4.97;94.48;100092.09;5018881;28;10899;-71
2022/01/05 08:08:45;;;;;;;;;4.50;0.75;;;;;5.00;94.47;100090.91;5018753;28;11052;-71
2022/01/05 08:11:12;;;;;;;;;3.00;2.25;;;;;5.03;93.81;100078.00;5019472;28;11003;-70
2022/01/05 08:13:38;;;;;;;;;2.75;1.75;;;;;5.10;93.38;100086.19;5020157;28;10823;-71
2022/01/05 08:16:06;;;;;;;;;1.25;0.75;;;;;5.09;92.66;100087.19;5016602;28;10944;-72
2022/01/05 08:18:33;;;;;;;;;3.50;1.50;;;;;5.10;92.40;100084.34;5020199;28;11734;-71
2022/01/05 08:21:00;;;;;;;;;2.00;2.00;;;;;5.16;92.06;100082.81;5019111;28;10949;-71
2022/01/05 08:23:26;;;;;;;;;3.25;1.50;;;;;5.20;92.39;100093.03;5019390;28;11046;-71
2022/01/05 08:25:53;;;;;;;;;1.25;0.75;;;;;5.19;92.69;100095.88;5018232;28;10905;-72
2022/01/05 08:28:20;;;;;;;;;2.25;2.25;;;;;5.21;93.93;100091.19;5014657;28;10929;-72
2022/01/05 08:30:47;;;;;;;;;3.00;2.00;;;;;5.22;93.86;100103.59;5017991;28;11545;-72
2022/01/05 08:33:15;;;;;;;;;4.00;2.75;;;;;5.23;94.65;100108.78;5002872;28;11114;-73
2022/01/05 08:35:42;;;;;;;;;8.50;2.00;;;;;5.22;94.96;100115.16;5019188;28;10816;-72
2022/01/05 08:38:10;;;;;;;;;3.75;1.25;;;;;5.18;95.08;100100.41;5002905;28;11101;-71
2022/01/05 08:40:38;;;;;;;;;7.00;4.00;;;;;5.19;95.74;100117.34;5019971;28;10970;-71
2022/01/05 08:43:06;;;;;;;;;3.50;1.75;;;;;5.21;95.88;100124.22;5019729;28;10915;-70
2022/01/05 08:45:33;;;;;;;;;4.25;3.00;;;;;5.24;95.65;100128.41;5018698;28;10857;-71
2022/01/05 08:48:00;;;;;;;;;4.00;0.50;;;;;5.22;95.75;100142.00;5014562;28;10922;-71
2022/01/05 08:50:30;;;;;;;;;2.25;2.25;;;;;5.24;96.20;100139.16;5018082;28;12794;-71
2022/01/05 08:52:57;;;;;;;;;3.00;1.00;;;;;5.28;96.34;100135.09;5018010;28;10744;-72
2022/01/05 08:55:29;;;;;;;;;2.75;2.00;;;;;5.22;96.52;100139.31;5018754;28;10996;-73
2022/01/05 08:57:56;;;;;;;;;1.25;1.00;;;;;5.25;96.74;100143.50;5002257;28;10894;-72
2022/01/05 09:00:23;;;;;;;;;1.75;1.75;;;;;5.26;97.21;100145.19;5000175;28;11853;-72
2022/01/05 09:02:50;;;;;;;;;7.00;1.75;;;;;5.28;97.56;100142.31;5016989;28;10974;-72
2022/01/05 09:05:22;;;;;;;;;1.00;0.75;;;;;5.30;97.50;100141.13;5016590;28;10931;-73
2022/01/05 09:07:48;;;;;;;;;2.75;2.75;;;;;5.28;97.49;100151.22;5019400;28;10995;-73
2022/01/05 09:10:14;;;;;;;;;5.00;2.75;;;;;5.31;97.45;100147.34;5021873;28;10923;-73
2022/01/05 09:12:43;;;;;;;;;4.25;1.75;;;;;5.37;97.28;100155.53;5022098;28;10970;-73
2022/01/05 09:15:10;;;;;;;;;5.75;2.00;;;;;5.40;96.84;100151.66;5002276;28;11091;-74
2022/01/05 09:17:37;;;;;;;;;3.25;1.00;;;;;5.45;96.88;100158.22;5023000;28;11051;-71
2022/01/05 09:20:05;;;;;;;;;5.00;1.75;;;;;5.49;96.47;100156.00;5007924;28;10836;-71
2022/01/05 09:22:33;;;;;;;;;4.25;4.25;;;;;5.52;96.85;100161.88;5022144;28;11111;-72
2022/01/05 09:25:00;;;;;;;;;5.50;5.50;;;;;5.56;97.05;100170.41;5023224;28;11765;-71
2022/01/05 09:27:26;;;;;;;;;2.25;1.00;;;;;5.57;97.04;100164.88;5018678;28;11073;-71
2022/01/05 09:29:53;;;;;;;;;1.50;1.50;;;;;5.55;96.54;100179.47;5006570;28;10839;-72
2022/01/05 09:32:19;;;;;;;;;9.50;4.75;;;;;5.56;95.98;100183.84;5023796;28;10829;-72
2022/01/05 09:34:46;;;;;;;;;2.75;1.00;;;;;5.63;96.33;100179.44;5022468;28;11021;-72
2022/01/05 09:37:28;;;;;;;;;2.00;1.00;;;;;5.64;95.96;100185.66;5020985;28;10881;-71
2022/01/05 09:42:41;;;;;;;;;4.25;1.75;;;;;5.63;94.72;100195.56;5024080;28;10853;-71
2022/01/05 09:45:23;;;;;;;;;4.50;3.25;;;;;5.67;94.31;100202.25;5006321;28;10887;-72
2022/01/05 09:48:17;;;;;;;;;1.75;1.00;;;;;5.74;94.09;100191.69;5023071;28;10895;-72
2022/01/05 09:50:54;;;;;;;;;1.00;1.00;;;;;5.75;93.27;100202.25;5022320;28;10900;-72
2022/01/05 09:53:23;;;;;;;;;2.50;2.00;;;;;5.82;94.69;100213.94;5020633;28;10710;-70
2022/01/05 09:55:51;;;;;;;;;5.00;3.00;;;;;5.80;93.92;100215.16;5020614;28;11439;-72
2022/01/05 09:58:23;;;;;;;;;2.00;1.50;;;;;5.88;93.77;100226.69;5023787;28;10874;-72
2022/01/05 10:00:51;;;;;;;;;3.00;1.75;;;;;5.88;93.44;100220.47;5004994;28;10893;-73
2022/01/05 10:03:18;;;;;;;;;1.75;1.75;;;;;5.90;93.70;100228.38;5020114;28;11121;-71
2022/01/05 10:05:45;;;;;;;;;2.00;2.00;;;;;5.91;93.25;100228.22;4988219;28;10759;-72
2022/01/05 10:08:12;;;;;;;;;5.75;2.00;;;;;5.91;93.43;100230.06;5020431;28;10794;-71
2022/01/05 10:10:41;;;;;;;;;1.00;1.00;;;;;5.90;93.16;100245.34;5025177;28;10911;-71
2022/01/05 10:13:08;;;;;;;;;3.00;1.00;;;;;5.88;93.09;100250.03;5000748;28;10825;-70
2022/01/05 10:15:35;;;;;;;;;5.00;1.75;;;;;5.94;93.18;100243.16;5005181;28;11074;-73
2022/01/05 10:18:17;;;;;;;;;3.00;2.50;;;;;6.01;93.44;100239.59;5020490;28;10640;-70
2022/01/05 10:20:58;;;;;;;;;5.50;2.75;;;;;5.98;92.90;100241.81;5023871;28;10674;-72
2022/01/05 10:23:43;;;;;;;;;3.00;1.50;;;;;5.98;93.38;100255.25;5019914;28;10787;-71
2022/01/05 10:26:25;;;;;;;;;3.00;0.50;;;;;5.91;93.52;100244.34;5004438;28;10846;-72
2022/01/05 10:29:13;;;;;;;;;2.50;2.00;;;;;5.90;93.97;100247.19;5022044;28;10742;-71
2022/01/05 10:31:41;;;;;;;;;3.50;1.50;;;;;5.89;94.41;100273.19;5002998;28;10919;-72
2022/01/05 10:34:20;;;;;;;;;1.75;1.75;;;;;5.98;95.17;100271.38;5020585;28;10821;-71
2022/01/05 10:36:48;;;;;;;;;2.00;0.75;;;;;6.00;95.21;100277.41;5021123;28;10748;-72
2022/01/05 10:39:18;;;;;;;;;6.25;3.50;;;;;5.96;95.27;100271.53;5021598;28;10771;-72
2022/01/05 10:41:46;;;;;;;;;3.00;2.00;;;;;6.05;94.70;100277.72;5017646;28;10929;-71
2022/01/05 10:44:20;;;;;;;;;2.00;1.00;;;;;6.06;94.36;100269.47;5004172;28;10789;-71
2022/01/05 10:46:53;;;;;;;;;4.00;2.50;;;;;6.10;94.31;100278.03;5020793;28;10906;-71
2022/01/05 10:49:34;;;;;;;;;1.00;1.00;;;;;6.12;93.07;100302.88;5019359;28;10799;-72
2022/01/05 10:52:35;;;;;;;;;2.75;1.50;;;;;6.13;94.08;100300.00;5021133;28;10688;-71
2022/01/05 10:55:11;;;;;;;;;3.00;1.00;;;;;6.06;94.84;100298.19;5021099;28;10841;-71
2022/01/05 10:57:38;;;;;;;;;5.25;2.00;;;;;6.12;95.33;100313.63;5020899;28;10653;-72
2022/01/05 11:00:06;;;;;;;;;5.00;3.50;;;;;6.15;95.76;100314.09;5020978;28;10835;-73
2022/01/05 11:02:35;;;;;;;;;1.00;1.00;;;;;6.19;96.32;100317.28;5004047;28;10878;-73
2022/01/05 11:05:01;;;;;;;;;0.25;0.25;;;;;6.25;96.44;100315.78;5022754;28;10699;-73
2022/01/05 11:07:31;;;;;;;;;8.25;3.50;;;;;6.26;95.76;100314.75;5022224;28;10515;-73
2022/01/05 11:10:05;;;;;;;;;2.00;2.00;;;;;6.21;94.74;100317.97;5004369;28;11472;-72
2022/01/05 11:12:46;;;;;;;;;5.00;5.00;;;;;6.26;94.23;100322.81;5019351;28;10622;-72
2022/01/05 11:15:27;;;;;;;;;2.00;2.00;;;;;6.27;93.10;100324.50;5021827;28;10768;-72
2022/01/05 11:18:16;;;;;;;;;4.25;4.25;;;;;6.30;93.93;100318.78;5019958;28;10709;-73
2022/01/05 11:20:46;;;;;;;;;2.00;1.00;;;;;6.28;94.14;100334.25;5020520;28;10700;-73
2022/01/05 11:23:13;;;;;;;;;4.00;1.25;;;;;6.27;94.63;100341.47;5006295;28;10715;-74
2022/01/05 11:25:42;;;;;;;;;2.00;2.00;;;;;6.36;94.80;100331.50;5020817;28;11366;-75
2022/01/05 11:28:08;;;;;;;;;5.50;2.00;;;;;6.46;94.55;100341.06;5017721;28;10545;-71
2022/01/05 11:30:36;;;;;;;;;5.00;2.50;;;;;6.47;94.20;100331.16;5022775;28;10578;-72
2022/01/05 11:33:04;;;;;;;;;2.50;2.50;;;;;6.46;92.69;100338.38;5021784;28;10524;-73
2022/01/05 11:35:32;;;;;;;;;4.00;3.50;;;;;6.46;91.60;100340.22;5018878;28;10677;-73
2022/01/05 11:37:58;;;;;;;;;5.75;1.00;;;;;6.56;90.93;100348.06;5004069;28;10602;-74
2022/01/05 11:40:26;;;;;;;;;4.00;3.00;;;;;6.60;90.61;100346.69;5020778;28;10639;-72
2022/01/05 11:43:08;;;;;;;;;3.25;3.25;;;;;6.81;91.54;100354.16;5019048;28;10634;-71